Time;durP1;ratioP1;P1;durP2;ratioP2;P2;SDS_P1;SDS_P2;PMS_P1;PMS_P2;Temp;Humidity;BMP_temperature;BMP_pressure;BME280_temperature;BME280_humidity;BME280_pressure;Samples;Min_cycle;Max_cycle;Signal;HPM_P1;HPM_P2
2022/08/21 00:02:21;;;;;;;2.80;2.60;;;18.40;99.90;;;;;;4958483;29;20075;-80
2022/08/21 00:04:47;;;;;;;4.00;2.47;;;18.40;99.90;;;;;;4960013;29;20027;-79
2022/08/21 00:07:13;;;;;;;3.25;2.83;;;18.40;99.90;;;;;;4964992;28;20023;-78
2022/08/21 00:09:40;;;;;;;3.30;2.67;;;18.40;99.90;;;;;;4966536;29;20035;-80
2022/08/21 00:12:07;;;;;;;4.07;2.47;;;18.40;99.90;;;;;;4965895;29;20027;-78
2022/08/21 00:14:34;;;;;;;2.88;2.58;;;18.40;99.90;;;;;;4963141;28;20090;-80
2022/08/21 00:17:00;;;;;;;2.65;2.42;;;18.40;99.90;;;;;;4945706;29;20023;-79
2022/08/21 00:19:27;;;;;;;3.08;2.50;;;18.40;99.90;;;;;;4927835;29;20031;-81
2022/08/21 00:21:54;;;;;;;3.10;2.63;;;18.40;99.90;;;;;;4941202;29;20019;-81
2022/08/21 00:24:21;;;;;;;2.95;2.60;;;18.40;99.90;;;;;;4941394;29;20074;-80
2022/08/21 00:26:47;;;;;;;2.53;2.33;;;18.40;99.90;;;;;;4959642;29;20023;-80
2022/08/21 00:29:13;;;;;;;2.40;2.20;;;18.40;99.90;;;;;;4957796;28;20037;-81
2022/08/21 00:31:41;;;;;;;3.22;2.40;;;18.40;99.90;;;;;;4957754;29;20155;-81
2022/08/21 00:34:07;;;;;;;2.50;2.30;;;18.30;99.90;;;;;;4961205;29;20027;-80
2022/08/21 00:36:34;;;;;;;3.85;2.80;;;18.40;99.90;;;;;;4949603;29;20089;-81
2022/08/21 00:39:00;;;;;;;3.20;2.90;;;18.40;99.90;;;;;;4963705;28;20090;-80
2022/08/21 00:41:26;;;;;;;3.38;2.83;;;18.40;99.90;;;;;;4946719;29;20047;-79
2022/08/21 00:43:53;;;;;;;4.18;3.10;;;18.30;99.90;;;;;;4964367;29;20062;-80
2022/08/21 00:46:19;;;;;;;4.05;3.30;;;18.30;99.90;;;;;;4946766;29;20027;-79
2022/08/21 00:48:45;;;;;;;4.65;3.63;;;18.30;99.90;;;;;;4959263;28;20024;-80
2022/08/21 00:51:22;;;;;;;4.22;3.60;;;18.30;99.90;;;;;;4957090;29;20031;-80
2022/08/21 00:53:53;;;;;;;4.53;3.60;;;18.30;99.90;;;;;;4940104;29;20039;-82
2022/08/21 00:56:22;;;;;;;8.07;3.58;;;18.20;99.90;;;;;;4956384;29;20027;-80
2022/08/21 00:58:49;;;;;;;4.63;3.97;;;18.20;99.90;;;;;;4956608;28;20027;-82
2022/08/21 01:01:15;;;;;;;5.55;3.30;;;18.20;99.90;;;;;;4956531;29;20121;-80
2022/08/21 01:03:41;;;;;;;4.00;3.53;;;18.20;99.90;;;;;;4939396;29;20050;-80
2022/08/21 01:06:08;;;;;;;5.53;3.78;;;18.20;99.90;;;;;;4957810;29;20140;-80
2022/08/21 01:08:35;;;;;;;5.97;3.40;;;18.30;99.90;;;;;;4939268;29;20046;-81
2022/08/21 01:11:02;;;;;;;5.72;4.07;;;18.30;99.90;;;;;;4939596;29;20035;-81
2022/08/21 01:13:32;;;;;;;5.68;3.95;;;18.30;99.90;;;;;;4957559;29;20488;-81
2022/08/21 01:16:00;;;;;;;3.70;3.20;;;18.40;99.90;;;;;;4957004;29;20114;-81
2022/08/21 01:18:27;;;;;;;3.97;3.55;;;18.50;99.90;;;;;;4956033;28;20396;-81
2022/08/21 01:21:18;;;;;;;4.50;3.83;;;18.50;99.90;;;;;;4956818;29;20042;-81
2022/08/21 01:23:47;;;;;;;3.22;2.92;;;18.50;99.90;;;;;;4959339;29;20156;-80
2022/08/21 01:26:16;;;;;;;5.32;4.07;;;18.60;99.90;;;;;;4966525;28;20023;-81
2022/08/21 01:28:49;;;;;;;4.82;3.95;;;18.60;99.90;;;;;;4962934;28;20175;-79
2022/08/21 01:31:19;;;;;;;4.80;4.10;;;18.70;99.90;;;;;;4966626;29;20095;-80
2022/08/21 01:33:45;;;;;;;5.82;4.35;;;18.70;99.90;;;;;;4954070;29;20031;-78
2022/08/21 01:36:11;;;;;;;4.53;3.58;;;18.70;99.90;;;;;;4969674;29;20189;-79
2022/08/21 01:38:37;;;;;;;5.45;3.88;;;18.80;99.90;;;;;;4976737;28;20054;-80
2022/08/21 01:41:02;;;;;;;5.35;3.72;;;18.70;99.90;;;;;;4967184;28;20458;-81
2022/08/21 01:43:28;;;;;;;6.25;4.13;;;18.80;99.90;;;;;;4980949;28;20055;-79
2022/08/21 01:45:54;;;;;;;4.57;3.95;;;18.80;99.90;;;;;;4945311;29;20035;-80
2022/08/21 01:48:20;;;;;;;4.35;3.88;;;18.80;99.90;;;;;;4946134;29;20166;-81
2022/08/21 01:50:45;;;;;;;4.68;4.13;;;18.80;99.90;;;;;;4964977;29;20026;-79
2022/08/21 01:53:11;;;;;;;5.55;4.10;;;18.80;99.90;;;;;;4965314;29;20395;-78
2022/08/21 01:55:37;;;;;;;5.40;3.83;;;18.80;99.90;;;;;;4964453;29;20027;-80
2022/08/21 01:58:03;;;;;;;6.20;3.40;;;18.70;99.90;;;;;;4962289;28;20095;-80
2022/08/21 02:00:29;;;;;;;3.78;3.38;;;18.70;99.90;;;;;;4961752;29;20030;-81
2022/08/21 02:02:55;;;;;;;3.42;3.13;;;18.60;99.90;;;;;;4960219;29;20035;-80
2022/08/21 02:05:21;;;;;;;3.25;2.95;;;18.50;99.90;;;;;;4961702;29;20050;-79
2022/08/21 02:07:50;;;;;;;5.20;3.30;;;18.50;99.90;;;;;;4964464;28;20039;-80
2022/08/21 02:10:20;;;;;;;5.60;3.17;;;18.40;99.90;;;;;;4946195;29;20035;-80
2022/08/21 02:12:46;;;;;;;3.67;3.08;;;18.30;99.90;;;;;;4963727;29;20042;-79
2022/08/21 02:15:12;;;;;;;4.05;3.38;;;18.30;99.90;;;;;;4962550;29;20415;-80
2022/08/21 02:17:53;;;;;;;4.03;3.53;;;18.30;99.90;;;;;;4960444;28;20034;-80
2022/08/21 02:20:30;;;;;;;4.53;2.60;;;18.30;99.90;;;;;;4943346;29;20034;-80
2022/08/21 02:22:58;;;;;;;5.10;3.22;;;18.30;99.90;;;;;;4960643;29;20047;-82
2022/08/21 02:25:25;;;;;;;3.63;3.15;;;18.30;99.90;;;;;;4959865;29;20019;-81
2022/08/21 02:27:52;;;;;;;4.03;3.00;;;18.30;99.90;;;;;;4960481;28;20368;-81
2022/08/21 02:30:27;;;;;;;4.53;3.03;;;18.30;99.90;;;;;;4960000;29;20027;-79
2022/08/21 02:32:53;;;;;;;3.15;2.80;;;18.30;99.90;;;;;;4962912;29;20027;-78
2022/08/21 02:35:19;;;;;;;3.33;2.90;;;18.30;99.90;;;;;;4965757;29;20050;-80
2022/08/21 02:37:50;;;;;;;4.28;3.47;;;18.30;99.90;;;;;;4958195;28;20452;-79
2022/08/21 02:40:19;;;;;;;3.88;3.05;;;18.30;99.90;;;;;;4944560;29;20039;-81
2022/08/21 02:42:44;;;;;;;3.38;2.95;;;18.30;99.90;;;;;;4961571;29;20015;-80
2022/08/21 02:45:13;;;;;;;3.38;3.05;;;18.30;99.90;;;;;;4966117;29;20091;-77
2022/08/21 02:47:39;;;;;;;2.92;2.63;;;18.40;99.90;;;;;;4970416;28;20050;-78
2022/08/21 02:50:06;;;;;;;3.30;3.00;;;18.40;99.90;;;;;;4973508;29;20066;-80
2022/08/21 02:52:33;;;;;;;3.08;2.78;;;18.40;99.90;;;;;;4973687;29;20023;-79
2022/08/21 02:54:59;;;;;;;3.28;2.97;;;18.30;99.90;;;;;;4956869;28;20106;-80
2022/08/21 02:57:24;;;;;;;4.53;3.17;;;18.30;99.90;;;;;;4967089;28;20031;-78
2022/08/21 02:59:51;;;;;;;4.18;3.05;;;18.30;99.90;;;;;;4990318;28;20388;-79
2022/08/21 03:02:16;;;;;;;3.05;2.75;;;18.30;99.90;;;;;;4983296;28;20037;-79
2022/08/21 03:04:42;;;;;;;3.30;3.00;;;18.40;99.90;;;;;;4986778;28;20038;-79
2022/08/21 03:07:08;;;;;;;3.17;2.88;;;18.40;99.90;;;;;;4968224;28;20103;-79
2022/08/21 03:09:34;;;;;;;3.33;2.55;;;18.40;99.90;;;;;;4981312;28;20020;-80
2022/08/21 03:11:59;;;;;;;3.05;2.75;;;18.40;99.90;;;;;;4979812;28;20085;-79
2022/08/21 03:14:25;;;;;;;3.15;2.63;;;18.30;99.90;;;;;;4964682;28;20035;-78
2022/08/21 03:16:51;;;;;;;3.05;2.75;;;18.30;99.90;;;;;;4981448;28;20087;-78
2022/08/21 03:19:17;;;;;;;3.63;2.78;;;18.40;99.90;;;;;;4958808;28;20047;-79
2022/08/21 03:21:43;;;;;;;2.40;2.20;;;18.40;99.90;;;;;;4973924;28;20039;-79
2022/08/21 03:24:09;;;;;;;2.47;2.10;;;18.40;99.90;;;;;;4967102;28;20389;-80
2022/08/21 03:26:35;;;;;;;3.78;2.15;;;18.40;99.90;;;;;;4974273;28;20023;-80
2022/08/21 03:29:01;;;;;;;4.35;2.20;;;18.40;99.90;;;;;;4959639;28;20039;-80
2022/08/21 03:31:31;;;;;;;2.00;1.80;;;18.40;99.90;;;;;;4979858;28;20050;-78
2022/08/21 03:33:57;;;;;;;2.25;2.05;;;18.40;99.90;;;;;;4978722;28;20035;-79
2022/08/21 03:36:24;;;;;;;1.60;1.50;;;18.40;99.90;;;;;;4965812;28;20038;-77
2022/08/21 03:38:50;;;;;;;1.70;1.60;;;18.40;99.90;;;;;;4961171;29;20031;-82
2022/08/21 03:41:16;;;;;;;1.92;1.80;;;18.40;99.90;;;;;;4963047;29;20031;-77
2022/08/21 03:43:42;;;;;;;1.55;1.45;;;18.40;99.90;;;;;;4958365;29;20042;-76
2022/08/21 03:46:07;;;;;;;1.70;1.60;;;18.40;99.90;;;;;;4957807;29;20015;-78
2022/08/21 03:48:35;;;;;;;2.00;1.70;;;18.40;99.90;;;;;;4938772;29;20118;-76
2022/08/21 03:51:02;;;;;;;1.92;1.65;;;18.30;99.90;;;;;;4941487;29;20023;-77
2022/08/21 03:53:30;;;;;;;1.80;1.70;;;18.40;99.90;;;;;;4942974;29;20123;-77
2022/08/21 03:55:56;;;;;;;1.67;1.58;;;18.40;99.90;;;;;;4957057;29;20031;-79
2022/08/21 03:58:25;;;;;;;1.60;1.50;;;18.40;99.90;;;;;;4957865;29;20031;-78
2022/08/21 04:00:52;;;;;;;2.25;1.70;;;18.50;99.90;;;;;;4939186;29;20035;-77
2022/08/21 04:03:19;;;;;;;1.90;1.73;;;18.50;99.90;;;;;;4956213;29;20078;-77
2022/08/21 04:05:45;;;;;;;1.83;1.50;;;18.50;99.90;;;;;;4955820;29;20038;-78
2022/08/21 04:08:12;;;;;;;1.70;1.60;;;18.50;99.90;;;;;;4955145;29;20054;-78
2022/08/21 04:10:39;;;;;;;1.48;1.38;;;18.50;99.90;;;;;;4956558;29;20480;-78
2022/08/21 04:13:07;;;;;;;1.67;1.58;;;18.50;99.90;;;;;;4956210;29;20039;-77
2022/08/21 04:15:34;;;;;;;2.45;1.80;;;18.40;99.90;;;;;;4956479;29;20026;-78
2022/08/21 04:18:00;;;;;;;2.08;1.88;;;18.50;99.90;;;;;;4955567;29;20031;-79
2022/08/21 04:20:26;;;;;;;2.47;2.08;;;18.50;99.90;;;;;;4957139;29;20069;-79
2022/08/21 04:22:52;;;;;;;2.25;1.67;;;18.50;99.90;;;;;;4962966;29;20047;-83
2022/08/21 04:25:21;;;;;;;2.20;2.00;;;18.40;99.90;;;;;;4956816;29;20110;-79
2022/08/21 04:27:47;;;;;;;1.88;1.67;;;18.40;99.90;;;;;;4955709;29;20428;-78
2022/08/21 04:30:15;;;;;;;2.15;1.75;;;18.50;99.90;;;;;;4937838;29;20031;-79
2022/08/21 04:32:50;;;;;;;2.03;1.70;;;18.50;99.90;;;;;;4955303;29;20043;-78
2022/08/21 04:35:21;;;;;;;1.73;1.63;;;18.50;99.90;;;;;;4956036;29;20042;-78
2022/08/21 04:37:47;;;;;;;2.88;2.35;;;18.50;99.90;;;;;;4955019;29;20393;-79
2022/08/21 04:40:15;;;;;;;2.38;2.00;;;18.50;99.90;;;;;;4955029;29;20027;-77
2022/08/21 04:42:44;;;;;;;4.60;2.28;;;18.60;99.90;;;;;;4938516;29;20037;-77
2022/08/21 04:45:26;;;;;;;2.25;2.05;;;18.60;99.90;;;;;;4955682;29;20031;-77
2022/08/21 04:47:54;;;;;;;3.38;2.40;;;18.60;99.90;;;;;;4954668;29;20401;-76
2022/08/21 04:50:26;;;;;;;2.55;2.35;;;18.60;99.90;;;;;;4954616;29;20089;-77
2022/08/21 04:53:04;;;;;;;2.72;2.40;;;18.60;99.90;;;;;;4955651;29;20053;-77
2022/08/21 04:55:30;;;;;;;8.38;2.60;;;18.60;99.90;;;;;;4955722;29;20403;-78
2022/08/21 04:57:57;;;;;;;2.78;2.40;;;18.70;99.90;;;;;;4955045;29;20031;-76
2022/08/21 05:00:24;;;;;;;2.67;2.35;;;18.80;99.90;;;;;;4954552;28;20687;-78
2022/08/21 05:02:54;;;;;;;2.60;2.40;;;18.80;99.90;;;;;;4955233;29;20357;-77
2022/08/21 05:05:20;;;;;;;2.65;2.45;;;18.90;99.90;;;;;;4956328;29;20020;-78
2022/08/21 05:07:46;;;;;;;3.15;2.50;;;18.90;99.90;;;;;;4937628;29;20106;-77
2022/08/21 05:10:14;;;;;;;3.15;2.72;;;19.00;99.90;;;;;;4954236;29;20047;-77
2022/08/21 05:12:42;;;;;;;4.72;2.70;;;19.10;99.90;;;;;;4954436;29;20522;-78
2022/08/21 05:15:09;;;;;;;3.95;2.60;;;19.10;99.90;;;;;;4954569;29;20153;-78
2022/08/21 05:17:35;;;;;;;2.85;2.60;;;19.10;99.90;;;;;;4954565;29;20027;-77
2022/08/21 05:20:01;;;;;;;4.05;3.05;;;19.10;99.90;;;;;;4954025;29;20452;-77
2022/08/21 05:22:27;;;;;;;3.65;2.60;;;19.10;99.90;;;;;;4969718;28;20023;-78
2022/08/21 05:24:53;;;;;;;3.15;2.85;;;19.10;99.90;;;;;;4937634;29;20276;-77
2022/08/21 05:27:19;;;;;;;4.32;2.60;;;19.10;99.90;;;;;;4937774;29;20027;-76
2022/08/21 05:29:44;;;;;;;2.92;2.67;;;19.20;99.90;;;;;;4954473;29;20031;-78
2022/08/21 05:32:12;;;;;;;3.00;2.70;;;19.30;99.90;;;;;;4956553;29;20042;-88
2022/08/21 05:34:38;;;;;;;4.95;2.97;;;19.30;99.90;;;;;;4956838;29;20027;-77
2022/08/21 05:37:04;;;;;;;3.55;2.90;;;19.30;99.90;;;;;;4973136;28;20022;-77
2022/08/21 05:39:30;;;;;;;3.67;3.08;;;19.30;99.90;;;;;;4982578;23;20046;-85
2022/08/21 05:41:56;;;;;;;3.53;3.05;;;19.30;99.90;;;;;;4962447;28;20041;-86
2022/08/21 05:44:22;;;;;;;6.28;3.00;;;19.30;99.90;;;;;;4957575;29;20054;-87
2022/08/21 05:46:48;;;;;;;3.67;3.38;;;19.40;99.90;;;;;;4980877;28;20034;-87
2022/08/21 05:49:13;;;;;;;4.32;3.28;;;19.50;99.90;;;;;;4973116;28;20070;-84
2022/08/21 05:51:41;;;;;;;3.30;2.85;;;19.50;99.90;;;;;;4966853;29;20024;-86
2022/08/21 05:54:07;;;;;;;3.53;3.10;;;19.40;99.90;;;;;;4952434;29;20042;-85
2022/08/21 05:56:32;;;;;;;3.65;3.13;;;19.40;99.90;;;;;;4972496;29;20015;-86
2022/08/21 05:58:58;;;;;;;3.47;3.17;;;19.50;99.90;;;;;;4974607;28;20090;-85
2022/08/21 06:01:24;;;;;;;3.85;2.92;;;19.50;99.90;;;;;;4975772;28;20015;-85
2022/08/21 06:03:51;;;;;;;6.00;2.97;;;19.40;99.90;;;;;;4974549;28;20065;-85
2022/08/21 06:06:17;;;;;;;3.08;2.67;;;19.50;99.90;;;;;;4975261;28;20024;-85
2022/08/21 06:08:43;;;;;;;3.60;3.00;;;19.50;99.90;;;;;;4977228;28;20043;-86
2022/08/21 06:11:09;;;;;;;3.97;3.00;;;19.60;99.90;;;;;;4976551;28;20031;-85
2022/08/21 06:13:36;;;;;;;3.85;3.30;;;19.50;99.90;;;;;;4976471;29;20026;-88
2022/08/21 06:16:12;;;;;;;3.50;3.20;;;19.60;99.90;;;;;;4974930;28;20031;-88
2022/08/21 06:18:39;;;;;;;3.55;3.13;;;19.60;99.90;;;;;;4973089;29;20039;-86
2022/08/21 06:21:06;;;;;;;3.67;3.33;;;19.60;99.90;;;;;;4974774;29;20015;-87
2022/08/21 06:23:32;;;;;;;3.80;3.10;;;19.60;99.90;;;;;;4975595;28;20035;-85
2022/08/21 06:26:01;;;;;;;3.88;3.20;;;19.60;99.90;;;;;;4980602;28;20095;-83
2022/08/21 06:28:27;;;;;;;3.30;3.00;;;19.70;99.90;;;;;;4971553;29;20015;-85
2022/08/21 06:30:53;;;;;;;4.03;3.30;;;19.80;99.90;;;;;;4973663;29;20019;-87
2022/08/21 06:33:19;;;;;;;4.30;3.33;;;19.80;99.90;;;;;;4971837;29;20054;-83
2022/08/21 06:35:44;;;;;;;3.72;3.28;;;19.80;99.90;;;;;;4971092;29;20027;-85
2022/08/21 06:38:11;;;;;;;3.78;3.28;;;19.90;99.90;;;;;;4971066;29;20451;-85
2022/08/21 06:40:38;;;;;;;3.80;3.40;;;19.80;99.90;;;;;;4973470;29;20046;-85
2022/08/21 06:43:14;;;;;;;4.68;3.03;;;19.90;99.90;;;;;;4976828;29;20023;-86
2022/08/21 06:45:40;;;;;;;4.32;3.40;;;19.90;99.90;;;;;;4973454;29;20027;-84
2022/08/21 06:48:09;;;;;;;4.65;3.63;;;19.90;99.90;;;;;;4976479;29;20201;-85
2022/08/21 06:50:35;;;;;;;3.75;3.45;;;19.80;99.90;;;;;;4967093;29;20322;-85
2022/08/21 06:53:10;;;;;;;3.45;3.15;;;19.90;99.90;;;;;;4978222;29;20070;-84
2022/08/21 06:55:36;;;;;;;;;;;19.90;99.90;;;;;;4974482;28;20055;-83
2022/08/21 06:58:03;;;;;;;3.92;3.42;;;19.90;99.90;;;;;;4978961;28;19934;-83
2022/08/21 07:00:30;;;;;;;4.25;3.38;;;19.90;99.90;;;;;;4978088;28;20046;-82
2022/08/21 07:02:56;;;;;;;3.75;3.35;;;19.90;99.90;;;;;;4979576;28;20031;-85
2022/08/21 07:05:24;;;;;;;4.63;3.75;;;20.00;99.90;;;;;;4979123;28;20021;-85
2022/08/21 07:07:50;;;;;;;4.00;3.60;;;20.00;99.90;;;;;;4979387;28;20074;-84
2022/08/21 07:10:16;;;;;;;5.22;3.80;;;19.90;99.90;;;;;;4980553;28;20023;-86
2022/08/21 07:12:44;;;;;;;5.28;3.80;;;20.00;99.90;;;;;;4980718;28;20022;-84
2022/08/21 07:15:10;;;;;;;8.18;3.45;;;19.90;99.90;;;;;;4979253;28;20028;-86
2022/08/21 07:17:36;;;;;;;4.05;3.65;;;20.00;99.90;;;;;;4963947;28;20039;-86
2022/08/21 07:20:03;;;;;;;4.22;3.55;;;20.00;99.90;;;;;;4979055;28;20023;-86
2022/08/21 07:22:29;;;;;;;4.30;3.70;;;19.90;99.90;;;;;;4979358;28;20043;-84
2022/08/21 07:25:01;;;;;;;7.72;3.63;;;19.90;99.90;;;;;;4978288;28;20042;-84
2022/08/21 07:27:27;;;;;;;5.07;3.97;;;19.90;99.90;;;;;;4961195;28;20059;-84
2022/08/21 07:29:53;;;;;;;5.75;3.88;;;19.90;99.90;;;;;;4975303;29;20011;-86
2022/08/21 07:32:19;;;;;;;5.80;4.32;;;20.00;99.90;;;;;;4977654;28;20042;-87
2022/08/21 07:34:47;;;;;;;5.70;4.10;;;19.90;99.90;;;;;;4976750;29;20012;-84
2022/08/21 07:37:17;;;;;;;5.32;4.00;;;19.90;99.90;;;;;;4977737;28;20043;-84
2022/08/21 07:39:43;;;;;;;4.18;3.78;;;19.90;99.90;;;;;;4971449;29;20027;-85
2022/08/21 07:42:10;;;;;;;6.18;4.03;;;19.80;99.90;;;;;;4977393;28;20031;-87
2022/08/21 07:44:36;;;;;;;4.43;3.90;;;19.90;99.90;;;;;;4977852;29;20033;-87
2022/08/21 07:47:02;;;;;;;4.50;3.90;;;19.80;99.90;;;;;;4974204;29;20031;-87
2022/08/21 07:49:28;;;;;;;4.70;4.20;;;19.80;99.90;;;;;;4969275;29;20019;-87
2022/08/21 07:51:54;;;;;;;4.28;3.67;;;19.90;99.90;;;;;;4969864;28;20106;-86
2022/08/21 07:54:20;;;;;;;3.95;3.35;;;19.90;99.90;;;;;;4969496;29;20006;-87
2022/08/21 07:56:46;;;;;;;4.68;3.50;;;20.00;99.90;;;;;;4972979;29;20042;-84
2022/08/21 07:59:12;;;;;;;4.47;3.78;;;20.00;99.90;;;;;;4976234;29;20047;-84
2022/08/21 08:01:38;;;;;;;4.00;3.60;;;20.00;99.90;;;;;;4977871;28;20054;-85
2022/08/21 08:04:04;;;;;;;4.32;3.65;;;20.10;99.90;;;;;;4977021;29;20027;-85
2022/08/21 08:06:30;;;;;;;5.22;3.85;;;20.10;99.90;;;;;;4979224;28;20023;-85
2022/08/21 08:08:56;;;;;;;4.20;3.80;;;20.00;99.90;;;;;;4978511;28;20038;-86
2022/08/21 08:11:22;;;;;;;3.92;3.53;;;20.10;99.90;;;;;;4978752;28;20103;-85
2022/08/21 08:13:50;;;;;;;4.35;3.90;;;20.20;99.90;;;;;;4978702;28;20015;-85
2022/08/21 08:16:17;;;;;;;5.03;4.07;;;20.30;99.90;;;;;;4980162;28;20022;-85
2022/08/21 08:18:44;;;;;;;5.28;4.50;;;20.40;99.90;;;;;;4979161;28;20035;-85
2022/08/21 08:21:11;;;;;;;6.72;4.35;;;20.30;99.90;;;;;;4978408;28;20043;-83
2022/08/21 08:23:38;;;;;;;6.90;4.80;;;20.20;99.90;;;;;;4979048;28;20019;-84
2022/08/21 08:26:05;;;;;;;5.15;4.47;;;20.00;99.90;;;;;;4977795;28;20026;-84
2022/08/21 08:28:32;;;;;;;5.18;4.47;;;20.10;99.90;;;;;;4972352;29;20023;-85
2022/08/21 08:31:00;;;;;;;5.03;4.00;;;20.00;99.90;;;;;;4968424;29;20027;-85
2022/08/21 08:33:26;;;;;;;5.15;4.53;;;19.80;99.90;;;;;;4967113;29;20074;-85
2022/08/21 08:35:52;;;;;;;4.53;4.05;;;19.80;99.90;;;;;;4967858;28;20031;-84
2022/08/21 08:38:20;;;;;;;4.75;4.10;;;19.80;99.90;;;;;;4966879;29;20038;-84
2022/08/21 08:40:52;;;;;;;5.65;4.10;;;19.80;99.90;;;;;;4967716;28;20037;-84
2022/08/21 08:43:18;;;;;;;5.97;4.93;;;19.80;99.90;;;;;;4971695;29;20078;-85
2022/08/21 08:45:49;;;;;;;4.72;4.07;;;19.90;99.90;;;;;;4971353;29;20019;-85
2022/08/21 08:48:30;;;;;;;6.18;4.55;;;20.10;99.90;;;;;;4972458;29;20038;-84
2022/08/21 08:50:59;;;;;;;6.90;4.43;;;20.30;99.90;;;;;;4972231;29;20035;-83
2022/08/21 08:53:28;;;;;;;4.40;3.63;;;20.50;99.90;;;;;;4975310;29;20058;-85
2022/08/21 08:55:55;;;;;;;5.15;4.03;;;20.60;99.90;;;;;;4975833;29;20042;-86
2022/08/21 08:58:31;;;;;;;5.30;3.88;;;20.80;99.90;;;;;;4976364;29;20036;-86
2022/08/21 09:00:58;;;;;;;6.25;3.60;;;20.90;99.90;;;;;;4977652;28;20023;-84
2022/08/21 09:03:26;;;;;;;4.45;3.38;;;21.00;99.90;;;;;;4976663;29;20027;-85
2022/08/21 09:06:06;;;;;;;5.18;3.42;;;20.90;99.90;;;;;;4973911;28;20062;-86
2022/08/21 09:08:56;;;;;;;4.78;3.42;;;21.10;99.90;;;;;;4974307;29;20035;-88
2022/08/21 09:11:50;;;;;;;3.20;2.90;;;21.10;99.90;;;;;;4976086;29;20027;-86
2022/08/21 09:14:40;;;;;;;3.90;3.20;;;21.00;99.90;;;;;;4976796;29;20022;-86
2022/08/21 09:17:36;;;;;;;6.88;3.03;;;20.90;99.90;;;;;;4974430;29;20085;-84
2022/08/21 09:20:18;;;;;;;;;;;20.90;99.90;;;;;;4974982;29;20028;-85
2022/08/21 09:23:22;;;;;;;4.10;3.55;;;20.90;99.90;;;;;;4974231;29;19937;-86
2022/08/21 09:26:09;;;;;;;2.60;2.40;;;21.00;99.90;;;;;;4971905;28;20031;-86
2022/08/21 09:28:35;;;;;;;3.78;2.97;;;20.80;99.90;;;;;;4971437;29;20031;-85
2022/08/21 09:31:26;;;;;;;3.83;2.85;;;20.60;99.90;;;;;;4974219;29;20110;-85
2022/08/21 09:34:04;;;;;;;3.28;2.30;;;20.60;99.90;;;;;;4975397;29;20082;-87
2022/08/21 09:36:50;;;;;;;2.95;2.65;;;20.70;99.90;;;;;;4975861;28;20027;-86
2022/08/21 09:39:26;;;;;;;2.75;2.50;;;20.70;99.90;;;;;;4975886;28;20027;-87
2022/08/21 09:42:04;;;;;;;2.92;2.28;;;20.90;99.90;;;;;;4977349;28;20058;-87
2022/08/21 09:44:35;;;;;;;2.53;2.10;;;21.30;99.90;;;;;;4976757;29;20015;-84
2022/08/21 09:47:01;;;;;;;1.85;1.63;;;21.90;99.90;;;;;;4978014;28;20027;-85
2022/08/21 09:49:32;;;;;;;2.40;2.15;;;22.20;99.90;;;;;;4981404;28;20059;-84
2022/08/21 09:51:59;;;;;;;2.83;1.48;;;22.60;99.90;;;;;;4981595;28;20035;-83
2022/08/21 09:54:36;;;;;;;1.60;1.40;;;23.00;99.90;;;;;;4981740;28;20023;-85
2022/08/21 09:59:53;;;;;;;2.08;1.70;;;23.30;99.90;;;;;;4980875;28;20043;-86
2022/08/21 10:02:31;;;;;;;1.85;1.40;;;23.00;99.90;;;;;;4981550;28;20034;-85
2022/08/21 10:05:28;;;;;;;1.90;1.75;;;23.10;99.90;;;;;;4980821;28;20111;-85
2022/08/21 10:07:56;;;;;;;1.60;1.50;;;23.00;99.90;;;;;;4968799;28;20066;-85
2022/08/21 10:10:35;;;;;;;2.13;1.85;;;23.00;99.90;;;;;;4980179;28;20015;-84
2022/08/21 10:13:13;;;;;;;1.38;1.27;;;22.90;99.90;;;;;;4981118;28;20027;-85
2022/08/21 10:15:56;;;;;;;5.10;1.30;;;22.70;99.90;;;;;;4979941;28;20066;-84
2022/08/21 10:18:35;;;;;;;1.92;1.52;;;22.50;99.90;;;;;;4979846;29;20038;-85
2022/08/21 10:21:28;;;;;;;2.38;2.08;;;22.20;99.90;;;;;;4981018;28;20046;-83
2022/08/21 10:24:00;;;;;;;2.33;2.13;;;21.80;99.90;;;;;;4980156;28;20094;-82
2022/08/21 10:27:03;;;;;;;3.00;2.42;;;21.50;99.90;;;;;;4978284;28;20050;-85
2022/08/21 10:30:12;;;;;;;2.65;2.40;;;21.40;99.90;;;;;;4971896;28;20108;-85
2022/08/21 10:32:47;;;;;;;3.10;2.80;;;21.10;99.90;;;;;;4979532;29;20058;-86
2022/08/21 10:35:31;;;;;;;2.80;2.60;;;21.00;99.90;;;;;;4980453;28;20035;-86
2022/08/21 10:38:19;;;;;;;3.33;2.63;;;20.90;99.90;;;;;;4978493;29;20035;-85
2022/08/21 10:41:14;;;;;;;3.22;2.92;;;20.90;99.90;;;;;;4979768;28;20026;-86
2022/08/21 10:44:03;;;;;;;3.78;3.08;;;20.80;99.90;;;;;;4978310;29;20034;-85
2022/08/21 10:47:07;;;;;;;3.03;2.72;;;20.60;99.90;;;;;;4977093;29;20035;-85
2022/08/21 10:49:51;;;;;;;3.88;3.15;;;20.60;99.90;;;;;;4980260;28;20027;-85
2022/08/21 10:52:23;;;;;;;4.60;3.17;;;20.70;99.90;;;;;;4981399;28;20027;-83
2022/08/21 10:55:10;;;;;;;3.53;2.83;;;20.70;99.90;;;;;;4981937;28;20043;-84
2022/08/21 10:57:47;;;;;;;4.18;3.15;;;20.70;99.90;;;;;;4981132;28;20047;-84
2022/08/21 11:00:21;;;;;;;2.50;2.28;;;20.60;99.90;;;;;;4981055;28;20023;-84
2022/08/21 11:02:47;;;;;;;3.65;2.00;;;20.60;99.90;;;;;;4980841;28;20050;-83
2022/08/21 11:05:36;;;;;;;2.30;2.10;;;20.50;99.90;;;;;;4981439;28;20015;-84
2022/08/21 11:08:33;;;;;;;2.85;2.17;;;20.40;99.90;;;;;;4980357;28;20099;-87
2022/08/21 11:11:35;;;;;;;2.85;1.55;;;20.40;99.90;;;;;;4977805;28;20070;-88
2022/08/21 11:14:23;;;;;;;1.95;1.50;;;20.70;99.90;;;;;;4982008;28;20016;-84
2022/08/21 11:17:07;;;;;;;1.73;1.30;;;21.20;99.90;;;;;;4981741;28;20025;-84
2022/08/21 11:19:49;;;;;;;2.30;1.23;;;21.80;99.90;;;;;;4981095;28;20090;-84
2022/08/21 11:22:38;;;;;;;2.58;1.65;;;22.00;99.90;;;;;;4980869;28;20302;-84
2022/08/21 11:25:20;;;;;;;2.22;1.50;;;22.40;99.90;;;;;;4980665;28;20019;-85
2022/08/21 11:27:58;;;;;;;3.40;1.40;;;22.80;99.90;;;;;;4980552;28;20051;-86
2022/08/21 11:30:29;;;;;;;1.85;1.20;;;22.90;99.90;;;;;;4979155;28;20054;-85
2022/08/21 11:33:26;;;;;;;2.58;1.25;;;22.50;99.90;;;;;;4979190;28;20186;-86
2022/08/21 11:36:15;;;;;;;5.10;3.45;;;22.40;99.90;;;;;;4980533;28;20042;-85
2022/08/21 11:38:45;;;;;;;2.50;1.77;;;22.40;99.90;;;;;;4999980;23;20141;-77
2022/08/21 11:41:34;;;;;;;2.60;1.80;;;22.20;99.90;;;;;;4978200;28;20117;-77
2022/08/21 11:44:00;;;;;;;1.50;1.40;;;22.00;99.90;;;;;;4978237;28;20023;-78
2022/08/21 11:47:03;;;;;;;1.83;1.42;;;21.90;99.90;;;;;;4976624;28;20058;-78
2022/08/21 11:50:05;;;;;;;1.50;1.30;;;21.80;99.90;;;;;;4976661;28;20022;-78
2022/08/21 11:52:42;;;;;;;1.20;1.10;;;21.80;99.90;;;;;;4976954;28;20030;-75
2022/08/21 11:55:25;;;;;;;4.82;1.58;;;21.80;99.90;;;;;;4959330;28;20027;-77
2022/08/21 11:58:04;;;;;;;1.52;1.42;;;21.70;99.90;;;;;;4951942;28;20043;-76
2022/08/21 12:00:42;;;;;;;1.60;1.40;;;21.60;99.90;;;;;;4965972;28;20110;-76
2022/08/21 12:03:26;;;;;;;1.92;1.30;;;21.50;99.90;;;;;;4978047;28;20128;-78
2022/08/21 12:06:20;;;;;;;2.72;1.50;;;21.60;99.90;;;;;;4959818;28;20031;-77
2022/08/21 12:08:59;;;;;;;2.00;1.55;;;21.60;99.90;;;;;;4955343;28;20541;-77
2022/08/21 12:11:25;;;;;;;2.42;1.20;;;21.60;99.90;;;;;;4976281;28;20121;-77
2022/08/21 12:14:06;;;;;;;1.58;1.30;;;21.60;99.90;;;;;;4976707;28;20045;-77
2022/08/21 12:16:32;;;;;;;1.40;1.30;;;21.60;99.90;;;;;;4975244;28;20035;-77
2022/08/21 12:19:11;;;;;;;1.48;1.30;;;21.70;99.90;;;;;;4975410;28;20407;-75
2022/08/21 12:21:52;;;;;;;5.13;1.50;;;21.60;99.90;;;;;;4975222;28;20034;-77
2022/08/21 12:24:31;;;;;;;2.40;1.50;;;21.50;99.90;;;;;;4958898;28;20195;-78
2022/08/21 12:26:59;;;;;;;1.77;1.58;;;21.40;99.90;;;;;;4975610;28;20054;-79
2022/08/21 12:29:27;;;;;;;2.35;1.25;;;21.50;99.90;;;;;;4974835;28;20403;-77
2022/08/21 12:31:58;;;;;;;1.83;1.23;;;21.40;99.90;;;;;;4975473;28;20479;-78
2022/08/21 12:34:31;;;;;;;2.58;1.42;;;21.30;99.90;;;;;;4977259;28;20034;-76
2022/08/21 12:37:02;;;;;;;1.50;1.40;;;21.10;99.90;;;;;;4976329;28;20037;-78
2022/08/21 12:39:32;;;;;;;3.28;1.75;;;21.00;99.90;;;;;;4974979;28;20038;-79
2022/08/21 12:42:11;;;;;;;1.98;1.70;;;20.60;99.90;;;;;;4975929;28;20027;-76
2022/08/21 12:44:46;;;;;;;1.40;1.30;;;20.50;99.90;;;;;;4974574;28;20030;-77
2022/08/21 12:47:19;;;;;;;1.50;1.27;;;20.50;99.90;;;;;;4975295;28;20027;-79
2022/08/21 12:50:08;;;;;;;3.58;1.65;;;20.50;99.90;;;;;;4977359;28;20483;-76
2022/08/21 12:53:02;;;;;;;3.97;1.73;;;20.40;99.90;;;;;;4980671;28;20035;-77
2022/08/21 12:55:31;;;;;;;1.70;1.60;;;20.30;99.90;;;;;;4945403;28;20027;-77
2022/08/21 12:57:57;;;;;;;2.92;1.92;;;20.20;99.90;;;;;;4978040;28;20033;-76
2022/08/21 13:00:26;;;;;;;1.73;1.50;;;20.10;99.90;;;;;;4977901;28;20033;-76
2022/08/21 13:02:54;;;;;;;3.22;1.63;;;20.20;99.90;;;;;;4978208;28;20073;-78
2022/08/21 13:05:35;;;;;;;2.10;1.90;;;20.10;99.90;;;;;;4959651;28;20027;-77
2022/08/21 13:08:10;;;;;;;5.00;2.10;;;20.20;99.90;;;;;;4959188;28;20089;-79
2022/08/21 13:10:37;;;;;;;1.80;1.67;;;20.30;99.90;;;;;;4977185;28;20034;-76
2022/08/21 13:13:12;;;;;;;3.72;1.55;;;20.30;99.90;;;;;;4976193;28;20391;-78